createdAt,value
2023-06-02T00:02:55.234Z,12.48
2023-06-02T00:06:00.919Z,12.47
2023-06-02T00:09:09.205Z,11.27
2023-06-02T00:12:12.295Z,12.43
2023-06-02T00:15:15.251Z,13.50
2023-06-02T00:18:18.182Z,9.75
2023-06-02T00:21:21.850Z,10.23
2023-06-02T00:24:25.926Z,11.57
2023-06-02T00:27:28.743Z,9.95
2023-06-02T00:30:31.771Z,13.93
2023-06-02T00:33:35.199Z,11.70
2023-06-02T00:36:38.162Z,13.40
2023-06-02T00:39:41.321Z,10.88
2023-06-02T00:42:44.137Z,11.82
2023-06-02T00:45:47.077Z,15.00
2023-06-02T00:48:50.704Z,13.77
2023-06-02T00:51:54.949Z,15.13
2023-06-02T00:54:58.295Z,12.68
2023-06-02T00:58:05.178Z,14.43
2023-06-02T01:01:13.584Z,17.15
2023-06-02T01:04:18.151Z,17.02
2023-06-02T01:07:25.525Z,13.47
2023-06-02T01:10:30.074Z,15.57
2023-06-02T01:13:32.996Z,14.75
2023-06-02T01:16:36.488Z,13.27
2023-06-02T01:19:39.758Z,19.58
2023-06-02T01:26:10.635Z,12.75
2023-06-02T01:29:14.793Z,14.55
2023-06-02T01:32:26.754Z,17.98
2023-06-02T01:35:33.033Z,20.00
2023-06-02T01:38:38.296Z,19.57
2023-06-02T01:41:44.346Z,17.83
2023-06-02T01:44:47.984Z,15.88
2023-06-02T01:47:50.866Z,21.45
2023-06-02T01:50:53.629Z,20.45
2023-06-02T01:53:56.395Z,15.37
2023-06-02T01:56:59.130Z,15.55
2023-06-02T02:00:02.757Z,15.18
2023-06-02T02:03:06.328Z,18.13
2023-06-02T02:06:09.161Z,14.68
2023-06-02T02:09:11.909Z,16.83
2023-06-02T02:12:14.618Z,12.88
2023-06-02T02:15:18.326Z,21.60
2023-06-02T02:18:21.926Z,18.20
2023-06-02T02:21:24.983Z,15.18
2023-06-02T02:24:27.806Z,13.53
2023-06-02T02:27:30.826Z,15.02
2023-06-02T02:30:33.960Z,13.35
2023-06-02T02:33:36.729Z,16.23
2023-06-02T02:36:41.244Z,21.75
2023-06-02T02:39:45.028Z,33.87
2023-06-02T02:42:47.818Z,46.28
2023-06-02T02:45:50.786Z,47.08
2023-06-02T02:48:54.464Z,38.88
2023-06-02T02:51:58.258Z,31.45
2023-06-02T02:55:01.311Z,33.77
2023-06-02T02:58:04.222Z,31.27
2023-06-02T03:01:07.065Z,27.02
2023-06-02T03:04:12.457Z,25.08
2023-06-02T03:07:15.330Z,18.63
2023-06-02T03:10:19.594Z,19.13
2023-06-02T03:13:23.650Z,18.48
2023-06-02T03:16:29.535Z,18.73
2023-06-02T03:19:35.565Z,20.65
2023-06-02T03:22:38.529Z,19.95
2023-06-02T03:25:42.061Z,26.10
2023-06-02T03:28:47.021Z,24.05
2023-06-02T03:31:55.337Z,18.95
2023-06-02T03:35:01.666Z,21.48
2023-06-02T03:38:07.359Z,19.20
2023-06-02T03:41:10.267Z,22.17
2023-06-02T03:44:13.208Z,18.80
2023-06-02T03:47:17.042Z,18.42
2023-06-02T03:50:19.822Z,15.82
2023-06-02T03:53:22.889Z,14.00
2023-06-02T03:56:26.550Z,17.23
2023-06-02T03:59:31.690Z,13.88
2023-06-02T04:02:34.797Z,13.00
2023-06-02T04:05:37.818Z,16.23
2023-06-02T04:08:41.460Z,17.58
2023-06-02T04:11:44.326Z,14.87
2023-06-02T04:14:47.488Z,18.42
2023-06-02T04:17:50.409Z,17.83
2023-06-02T04:20:53.639Z,14.32
2023-06-02T04:23:57.078Z,14.45
2023-06-02T04:26:59.830Z,14.87
2023-06-02T04:30:05.163Z,13.40
2023-06-02T04:33:09.881Z,13.63
2023-06-02T04:36:13.498Z,14.23
2023-06-02T04:39:17.560Z,13.70
2023-06-02T04:42:21.875Z,14.93
2023-06-02T04:45:25.304Z,17.10
2023-06-02T04:48:29.147Z,15.68
2023-06-02T04:51:32.008Z,16.85
2023-06-02T04:54:36.283Z,14.50
2023-06-02T04:57:39.547Z,16.13
2023-06-02T05:00:42.606Z,19.15
2023-06-02T05:03:45.862Z,16.25
2023-06-02T05:06:49.315Z,12.13
2023-06-02T05:09:52.467Z,15.63
2023-06-02T05:12:55.802Z,13.67
2023-06-02T05:15:59.306Z,13.70
2023-06-02T05:19:02.159Z,17.48
2023-06-02T05:22:06.552Z,16.52
2023-06-02T05:25:11.654Z,11.75
2023-06-02T05:28:16.075Z,11.73
2023-06-02T05:31:20.188Z,17.48
2023-06-02T05:34:23.670Z,15.90
2023-06-02T05:37:26.491Z,13.20
2023-06-02T05:40:29.342Z,11.93
2023-06-02T05:43:33.094Z,17.00
2023-06-02T05:46:35.963Z,11.57
2023-06-02T05:49:38.987Z,12.10
2023-06-02T05:52:42.277Z,15.52
2023-06-02T05:55:48.080Z,17.40
2023-06-02T05:58:52.471Z,12.50
2023-06-02T06:01:55.462Z,18.33
2023-06-02T06:04:58.787Z,14.48
2023-06-02T06:08:01.702Z,17.52
2023-06-02T06:11:05.711Z,15.43
2023-06-02T06:14:09.142Z,11.97
2023-06-02T06:17:13.984Z,10.35
2023-06-02T06:20:17.361Z,10.43
2023-06-02T06:23:20.206Z,16.95
2023-06-02T06:26:23.960Z,10.70
2023-06-02T06:29:27.337Z,11.67
2023-06-02T06:32:32.489Z,12.82
2023-06-02T06:35:38.924Z,11.90
2023-06-02T06:38:47.436Z,13.30
2023-06-02T06:41:50.230Z,12.85
2023-06-02T06:45:11.403Z,14.80
2023-06-02T06:48:14.870Z,12.75
2023-06-02T06:51:18.414Z,11.93
2023-06-02T06:54:21.216Z,10.60
2023-06-02T06:57:24.030Z,12.93
2023-06-02T07:00:49.398Z,9.90
2023-06-02T07:07:28.407Z,9.27
2023-06-02T07:10:33.796Z,11.25
2023-06-02T07:13:40.400Z,10.07
2023-06-02T07:16:48.986Z,10.20
2023-06-02T07:19:52.049Z,8.35
2023-06-02T07:22:55.067Z,9.50
2023-06-02T07:25:57.921Z,10.68
2023-06-02T07:29:00.977Z,10.70
2023-06-02T07:32:03.944Z,9.50
2023-06-02T07:35:11.743Z,10.75
2023-06-02T07:38:16.641Z,9.93
2023-06-02T07:41:21.906Z,6.32
2023-06-02T07:44:24.896Z,7.13
2023-06-02T07:47:27.783Z,11.37
2023-06-02T07:50:30.689Z,12.32
2023-06-02T07:53:33.550Z,10.07
2023-06-02T07:56:37.343Z,10.52
2023-06-02T07:59:40.198Z,9.85
2023-06-02T08:02:47.855Z,8.13
2023-06-02T08:05:51.865Z,7.07
2023-06-02T08:08:54.910Z,9.23
2023-06-02T08:11:57.857Z,9.18
2023-06-02T08:15:01.252Z,9.05
2023-06-02T08:18:04.556Z,7.03
2023-06-02T08:21:07.763Z,7.80
2023-06-02T08:24:50.460Z,7.00
2023-06-02T08:28:03.744Z,7.80
2023-06-02T08:31:07.002Z,7.72
2023-06-02T08:34:23.490Z,7.27
2023-06-02T08:37:26.479Z,8.73
2023-06-02T08:40:37.437Z,5.93
2023-06-02T08:43:42.491Z,6.15
2023-06-02T08:46:52.179Z,7.47
2023-06-02T08:49:55.019Z,5.27
2023-06-02T08:53:01.269Z,5.35
2023-06-02T08:56:06.448Z,7.55
2023-06-02T08:59:09.854Z,6.55
2023-06-02T09:02:13.600Z,6.97
2023-06-02T09:05:17.873Z,8.07
2023-06-02T09:08:21.442Z,5.28
2023-06-02T09:11:24.965Z,5.85
2023-06-02T09:14:27.811Z,8.23
2023-06-02T09:17:31.660Z,6.50
2023-06-02T09:20:36.163Z,10.80
2023-06-02T09:23:53.933Z,7.18
2023-06-02T09:26:57.099Z,4.32
2023-06-02T09:30:04.193Z,7.03
2023-06-02T09:33:14.361Z,7.72
2023-06-02T09:36:30.617Z,7.20
2023-06-02T09:39:37.720Z,9.07
2023-06-02T09:42:45.166Z,5.28
2023-06-02T09:45:51.321Z,6.32
2023-06-02T09:48:58.792Z,4.78
2023-06-02T09:52:18.901Z,7.70
2023-06-02T09:55:21.876Z,7.10
2023-06-02T09:58:24.799Z,5.25
2023-06-02T10:01:30.847Z,6.93
2023-06-02T10:04:33.883Z,8.48
2023-06-02T10:08:08.732Z,9.77
2023-06-02T10:11:28.343Z,5.97
2023-06-02T10:15:10.997Z,12.27
2023-06-02T10:18:51.740Z,8.40
2023-06-02T10:23:01.618Z,7.60
2023-06-02T10:26:40.808Z,6.30
2023-06-02T10:29:45.064Z,6.50
2023-06-02T10:32:50.155Z,7.57
2023-06-02T10:36:01.063Z,7.53
2023-06-02T10:39:41.800Z,5.68
2023-06-02T10:43:24.134Z,7.93
2023-06-02T10:46:27.171Z,7.15
2023-06-02T10:49:56.470Z,6.25
2023-06-02T10:53:02.519Z,7.65
2023-06-02T10:56:36.601Z,8.15
2023-06-02T10:59:39.673Z,8.83
2023-06-02T11:02:43.430Z,5.93
2023-06-02T11:05:48.864Z,5.88
2023-06-02T11:08:53.453Z,7.70
2023-06-02T11:11:56.530Z,8.50
2023-06-02T11:15:05.842Z,4.40
2023-06-02T11:18:23.813Z,5.90
2023-06-02T11:21:27.028Z,8.48
2023-06-02T11:24:30.208Z,6.47
2023-06-02T11:27:40.333Z,8.82
2023-06-02T11:30:43.177Z,6.40
2023-06-02T11:33:52.485Z,6.80
2023-06-02T11:36:55.360Z,6.03
2023-06-02T11:39:58.273Z,5.32
2023-06-02T11:43:01.716Z,6.10
2023-06-02T11:46:09.431Z,6.80
2023-06-02T11:49:12.552Z,7.45
2023-06-02T11:52:15.522Z,6.10
2023-06-02T11:55:18.635Z,6.82
2023-06-02T11:58:28.382Z,7.20
2023-06-02T12:01:34.840Z,10.93
2023-06-02T12:04:44.299Z,11.15
2023-06-02T12:07:47.328Z,5.65
2023-06-02T12:10:51.294Z,5.65
2023-06-02T12:14:08.372Z,7.22
2023-06-02T12:17:11.287Z,7.80
2023-06-02T12:20:14.246Z,11.60
2023-06-02T12:23:17.060Z,10.43
2023-06-02T12:26:20.379Z,7.13
2023-06-02T12:29:23.457Z,4.35
2023-06-02T12:32:27.728Z,4.37
2023-06-02T12:35:39.453Z,4.43
2023-06-02T12:38:51.604Z,4.53
2023-06-02T12:41:54.726Z,4.15
2023-06-02T12:44:57.578Z,4.50
2023-06-02T12:48:03.025Z,7.00
2023-06-02T12:51:08.806Z,5.13
2023-06-02T12:54:12.146Z,4.57
2023-06-02T12:57:15.113Z,7.68
2023-06-02T13:00:18.859Z,5.88
2023-06-02T13:03:21.757Z,3.67
2023-06-02T13:06:25.955Z,7.32
2023-06-02T13:09:28.995Z,7.60
2023-06-02T13:12:32.420Z,9.52
2023-06-02T13:15:35.765Z,7.85
2023-06-02T13:18:40.541Z,6.40
2023-06-02T13:21:43.839Z,6.05
2023-06-02T13:24:47.959Z,7.80
2023-06-02T13:27:51.057Z,8.93
2023-06-02T13:30:54.480Z,5.40
2023-06-02T13:33:57.258Z,8.03
2023-06-02T13:37:00.450Z,7.10
2023-06-02T13:40:04.971Z,6.18
2023-06-02T13:43:09.257Z,4.40
2023-06-02T13:46:12.317Z,6.13
2023-06-02T13:49:18.383Z,5.97
2023-06-02T13:52:21.133Z,4.00
2023-06-02T13:55:23.899Z,6.05
2023-06-02T13:58:26.769Z,5.93
2023-06-02T14:01:29.636Z,7.38
2023-06-02T14:04:32.875Z,7.80
2023-06-02T14:07:35.771Z,11.10
2023-06-02T14:10:38.558Z,6.25
2023-06-02T14:13:41.489Z,8.30
2023-06-02T14:16:44.335Z,9.38
2023-06-02T14:19:47.191Z,9.70
2023-06-02T14:22:49.988Z,6.70
2023-06-02T14:25:52.799Z,8.80
2023-06-02T14:28:55.825Z,9.32
2023-06-02T14:31:58.719Z,8.07
2023-06-02T14:35:01.845Z,8.80
2023-06-02T14:38:04.866Z,7.75
2023-06-02T14:41:08.069Z,8.07
2023-06-02T14:44:11.013Z,10.40
2023-06-02T14:47:14.065Z,6.72
2023-06-02T14:50:17.047Z,6.80
2023-06-02T14:53:19.889Z,9.75
2023-06-02T14:56:23.753Z,4.95
2023-06-02T14:59:26.548Z,12.50
2023-06-02T15:02:29.642Z,7.72
2023-06-02T15:05:32.415Z,8.33
2023-06-02T15:08:35.274Z,4.68
2023-06-02T15:11:40.399Z,7.13
2023-06-02T15:14:43.168Z,6.70
2023-06-02T15:17:46.228Z,7.40
2023-06-02T15:20:50.105Z,8.83
2023-06-02T15:23:52.973Z,8.13
2023-06-02T15:26:57.075Z,7.22
2023-06-02T15:29:59.950Z,7.18
2023-06-02T15:33:03.383Z,7.00
2023-06-02T15:36:06.865Z,6.50
2023-06-02T15:39:09.877Z,4.57
2023-06-02T15:42:12.737Z,6.70
2023-06-02T15:45:15.716Z,8.77
2023-06-02T15:48:18.656Z,6.38
2023-06-02T15:51:21.428Z,10.83
2023-06-02T15:54:24.890Z,9.77
2023-06-02T15:57:27.742Z,5.78
2023-06-02T16:00:30.671Z,9.20
2023-06-02T16:03:33.577Z,8.30
2023-06-02T16:06:37.786Z,8.07
2023-06-02T16:09:40.780Z,9.27
2023-06-02T16:12:43.530Z,6.75
2023-06-02T16:15:46.290Z,9.98
2023-06-02T16:18:49.102Z,7.22
2023-06-02T16:21:51.965Z,7.83
2023-06-02T16:24:54.848Z,8.35
2023-06-02T16:27:57.793Z,14.82
2023-06-02T16:31:00.732Z,12.48
2023-06-02T16:34:03.583Z,11.88
2023-06-02T16:37:08.204Z,13.13
2023-06-02T16:40:11.297Z,8.20
2023-06-02T16:43:19.620Z,7.32
2023-06-02T16:46:22.472Z,8.27
2023-06-02T16:49:25.330Z,7.22
2023-06-02T16:52:28.338Z,7.67
2023-06-02T16:55:31.153Z,8.10
2023-06-02T16:58:34.003Z,6.60
2023-06-02T17:01:36.826Z,6.95
2023-06-02T17:04:39.806Z,7.70
2023-06-02T17:07:42.695Z,6.10
2023-06-02T17:10:45.468Z,8.25
2023-06-02T17:13:53.163Z,9.38
2023-06-02T17:16:56.153Z,6.32
2023-06-02T17:19:58.989Z,7.13
2023-06-02T17:23:02.039Z,12.00
2023-06-02T17:26:05.010Z,7.03
2023-06-02T17:29:08.173Z,7.47
2023-06-02T17:32:15.604Z,7.15
2023-06-02T17:35:18.467Z,10.45
2023-06-02T17:38:21.621Z,12.50
2023-06-02T17:41:24.572Z,9.45
2023-06-02T17:44:27.504Z,7.88
2023-06-02T17:47:30.698Z,6.82
2023-06-02T17:50:33.573Z,8.10
2023-06-02T17:53:36.364Z,10.93
2023-06-02T17:56:39.180Z,10.80
2023-06-02T17:59:42.303Z,8.05
2023-06-02T18:02:45.288Z,7.10
2023-06-02T18:05:48.759Z,11.85
2023-06-02T18:08:51.698Z,9.50
2023-06-02T18:11:54.693Z,9.68
2023-06-02T18:15:01.139Z,8.10
2023-06-02T18:18:07.285Z,13.75
2023-06-02T18:21:10.028Z,7.38
2023-06-02T18:24:13.742Z,11.43
2023-06-02T18:27:16.851Z,11.20
2023-06-02T18:30:20.010Z,10.07
2023-06-02T18:33:22.877Z,11.52
2023-06-02T18:36:25.713Z,10.60
2023-06-02T18:39:29.051Z,14.87
2023-06-02T18:42:32.388Z,13.38
2023-06-02T18:45:35.250Z,12.48
2023-06-02T18:48:37.980Z,18.25
2023-06-02T18:51:40.781Z,13.30
2023-06-02T18:54:43.647Z,10.80
2023-06-02T18:57:46.510Z,11.88
2023-06-02T19:00:49.389Z,11.82
2023-06-02T19:03:52.538Z,12.52
2023-06-02T19:07:20.300Z,14.57
2023-06-02T19:10:25.939Z,13.70
2023-06-02T19:13:29.186Z,17.48
2023-06-02T19:16:32.174Z,14.82
2023-06-02T19:19:35.141Z,11.75
2023-06-02T19:22:40.653Z,12.48
2023-06-02T19:25:43.593Z,16.53
2023-06-02T19:28:46.446Z,13.00
2023-06-02T19:31:49.242Z,20.42
2023-06-02T19:34:52.113Z,19.00
2023-06-02T19:37:54.895Z,17.85
2023-06-02T19:40:58.144Z,15.10
2023-06-02T19:44:01.165Z,20.08
2023-06-02T19:47:04.564Z,14.95
2023-06-02T19:50:08.053Z,15.65
2023-06-02T19:53:10.949Z,9.73
2023-06-02T19:56:13.806Z,10.23
2023-06-02T19:59:17.595Z,11.40
2023-06-02T20:02:22.345Z,12.73
2023-06-02T20:05:25.199Z,9.05
2023-06-02T20:08:28.073Z,42.75
2023-06-02T20:11:31.004Z,19.93
2023-06-02T20:14:33.914Z,20.90
2023-06-02T20:17:37.036Z,21.13
2023-06-02T20:20:39.956Z,19.60
2023-06-02T20:23:42.827Z,14.68
2023-06-02T20:26:46.449Z,11.63
2023-06-02T20:29:49.502Z,14.45
2023-06-02T20:32:52.444Z,13.23
2023-06-02T20:35:55.260Z,14.63
2023-06-02T20:38:58.389Z,13.35
2023-06-02T20:42:01.208Z,17.40
2023-06-02T20:45:04.278Z,15.82
2023-06-02T20:48:07.320Z,16.10
2023-06-02T20:51:10.273Z,15.63
2023-06-02T20:54:13.246Z,17.42
2023-06-02T20:57:16.453Z,19.90
2023-06-02T21:00:20.542Z,20.10
2023-06-02T21:03:24.652Z,15.50
2023-06-02T21:06:27.735Z,17.48
2023-06-02T21:09:31.707Z,18.60
2023-06-02T21:12:34.778Z,19.27
2023-06-02T21:15:37.624Z,18.70
2023-06-02T21:18:40.679Z,20.08
2023-06-02T21:21:43.573Z,23.77
2023-06-02T21:24:46.578Z,22.80
2023-06-02T21:27:49.366Z,21.97
2023-06-02T21:30:52.127Z,20.77
2023-06-02T21:33:54.855Z,22.50
2023-06-02T21:36:57.717Z,22.05
2023-06-02T21:40:00.569Z,30.73
2023-06-02T21:43:03.514Z,27.43
2023-06-02T21:46:07.009Z,27.27
2023-06-02T21:49:09.928Z,24.52
2023-06-02T21:52:12.821Z,23.77
2023-06-02T21:55:15.688Z,23.38
2023-06-02T21:58:18.610Z,26.93
2023-06-02T22:01:21.871Z,23.10
2023-06-02T22:04:25.259Z,20.67
2023-06-02T22:07:28.260Z,22.98
2023-06-02T22:10:31.064Z,22.30
2023-06-02T22:13:33.874Z,19.20
2023-06-02T22:16:36.675Z,28.45
2023-06-02T22:19:39.606Z,25.17
2023-06-02T22:22:42.414Z,21.92
2023-06-02T22:25:45.215Z,26.27
2023-06-02T22:28:48.038Z,21.10
2023-06-02T22:31:51.435Z,17.33
2023-06-02T22:34:54.409Z,18.10
2023-06-02T22:37:57.653Z,18.70
2023-06-02T22:41:00.466Z,17.25
2023-06-02T22:44:03.340Z,17.73
2023-06-02T22:47:06.646Z,17.73
2023-06-02T22:50:09.763Z,17.75
2023-06-02T22:53:12.608Z,16.90
2023-06-02T22:56:15.523Z,17.15
2023-06-02T22:59:18.306Z,15.57
2023-06-02T23:02:21.104Z,16.80
2023-06-02T23:05:23.941Z,17.00
2023-06-02T23:08:26.777Z,16.10
2023-06-02T23:11:29.659Z,17.52
2023-06-02T23:14:32.453Z,17.13
2023-06-02T23:17:35.268Z,15.73
2023-06-02T23:20:38.169Z,15.13
2023-06-02T23:23:41.119Z,15.77
2023-06-02T23:26:44.005Z,12.65
2023-06-02T23:29:46.825Z,14.23
2023-06-02T23:32:49.725Z,15.57
2023-06-02T23:35:52.546Z,14.07
2023-06-02T23:38:55.775Z,12.13
2023-06-02T23:41:58.690Z,12.55
2023-06-02T23:45:01.564Z,9.60
2023-06-02T23:48:04.747Z,14.20
2023-06-02T23:51:10.589Z,10.63
2023-06-02T23:54:13.397Z,13.35
2023-06-02T23:57:17.200Z,20.75
